createdAt,value
2018-08-17T00:02:31.916Z,4.63
2018-08-17T00:05:03.945Z,4.30
2018-08-17T00:07:34.723Z,5.13
2018-08-17T00:12:48.002Z,5.53
2018-08-17T00:15:19.605Z,4.57
2018-08-17T00:17:51.648Z,4.93
2018-08-17T00:20:23.144Z,4.37
2018-08-17T00:22:54.840Z,5.07
2018-08-17T00:25:26.168Z,5.63
2018-08-17T00:28:01.423Z,3.93
2018-08-17T00:30:33.951Z,5.27
2018-08-17T00:33:07.289Z,5.60
2018-08-17T00:35:37.203Z,5.30
2018-08-17T00:38:07.202Z,3.73
2018-08-17T00:40:37.173Z,4.90
2018-08-17T00:43:14.806Z,3.87
2018-08-17T00:45:46.369Z,4.80
2018-08-17T00:48:16.319Z,4.90
2018-08-17T00:50:46.376Z,4.80
2018-08-17T00:53:17.244Z,3.67
2018-08-17T00:55:47.355Z,4.10
2018-08-17T00:58:18.088Z,4.00
2018-08-17T01:00:48.601Z,3.83
2018-08-17T01:03:19.256Z,4.27
2018-08-17T01:05:49.291Z,3.90
2018-08-17T01:08:19.572Z,3.57
2018-08-17T01:10:50.773Z,3.90
2018-08-17T01:13:22.411Z,3.87
2018-08-17T01:15:54.649Z,4.73
2018-08-17T01:18:24.757Z,3.37
2018-08-17T01:20:59.723Z,4.20
2018-08-17T01:23:29.314Z,8.67
2018-08-17T01:26:00.238Z,3.93
2018-08-17T01:28:32.648Z,4.53
2018-08-17T01:31:17.080Z,3.27
2018-08-17T01:33:47.137Z,3.70
2018-08-17T01:36:17.782Z,4.57
2018-08-17T01:38:48.171Z,4.23
2018-08-17T01:41:18.903Z,3.50
2018-08-17T01:43:49.540Z,3.90
2018-08-17T01:46:20.001Z,4.23
2018-08-17T01:48:51.734Z,4.07
2018-08-17T01:51:22.484Z,3.50
2018-08-17T01:53:58.095Z,5.07
2018-08-17T01:56:27.988Z,3.33
2018-08-17T01:58:57.915Z,3.23
2018-08-17T02:06:45.018Z,3.50
2018-08-17T02:09:16.088Z,3.50
2018-08-17T02:11:46.062Z,4.03
2018-08-17T02:14:16.968Z,3.53
2018-08-17T02:16:47.598Z,5.30
2018-08-17T02:19:19.296Z,3.20
2018-08-17T02:21:58.105Z,3.70
2018-08-17T02:24:28.619Z,4.57
2018-08-17T02:26:58.643Z,3.40
2018-08-17T02:29:30.638Z,4.10
2018-08-17T02:32:02.160Z,6.47
2018-08-17T02:34:31.971Z,7.03
2018-08-17T02:37:03.421Z,3.30
2018-08-17T02:39:33.651Z,3.53
2018-08-17T02:42:09.402Z,8.27
2018-08-17T02:44:40.033Z,4.50
2018-08-17T02:47:09.971Z,3.87
2018-08-17T02:49:40.100Z,4.47
2018-08-17T02:52:11.409Z,4.17
2018-08-17T02:54:41.307Z,4.10
2018-08-17T02:57:15.950Z,4.17
2018-08-17T02:59:48.696Z,3.70
2018-08-17T03:04:53.545Z,3.53
2018-08-17T03:07:23.359Z,4.03
2018-08-17T03:09:53.980Z,4.43
2018-08-17T03:12:25.608Z,5.50
2018-08-17T03:14:55.623Z,4.00
2018-08-17T03:17:25.336Z,4.23
2018-08-17T03:19:57.323Z,3.87
2018-08-17T03:22:27.309Z,4.47
2018-08-17T03:24:57.632Z,4.37
2018-08-17T03:27:29.072Z,4.27
2018-08-17T03:30:02.513Z,5.97
2018-08-17T03:32:32.347Z,4.50
2018-08-17T03:35:02.333Z,3.80
2018-08-17T03:37:35.718Z,4.00
2018-08-17T03:40:05.942Z,4.30
2018-08-17T03:42:36.049Z,4.10
2018-08-17T03:45:07.808Z,4.37
2018-08-17T03:47:40.310Z,5.73
2018-08-17T03:50:10.359Z,3.80
2018-08-17T03:52:40.217Z,4.70
2018-08-17T03:55:10.577Z,5.13
2018-08-17T03:57:46.699Z,4.63
2018-08-17T04:00:17.351Z,4.27
2018-08-17T04:02:48.736Z,5.03
2018-08-17T04:05:18.747Z,4.07
2018-08-17T04:07:48.634Z,4.60
2018-08-17T04:10:18.520Z,4.33
2018-08-17T04:12:48.757Z,4.93
2018-08-17T04:15:18.607Z,4.13
2018-08-17T04:17:48.923Z,3.43
2018-08-17T04:20:18.860Z,4.10
2018-08-17T04:22:48.991Z,4.33
2018-08-17T04:25:20.840Z,4.03
2018-08-17T04:27:54.597Z,4.57
2018-08-17T04:30:28.913Z,4.77
2018-08-17T04:33:07.325Z,3.97
2018-08-17T04:35:37.585Z,4.30
2018-08-17T04:38:07.765Z,4.43
2018-08-17T04:40:39.327Z,4.20
2018-08-17T04:43:09.680Z,4.60
2018-08-17T04:45:41.136Z,4.70
2018-08-17T04:48:14.162Z,5.90
2018-08-17T04:50:46.108Z,3.90
2018-08-17T04:56:26.191Z,3.97
2018-08-17T04:59:01.116Z,5.03
2018-08-17T05:02:20.067Z,5.13
2018-08-17T05:04:51.379Z,4.00
2018-08-17T05:07:25.722Z,3.70
2018-08-17T05:10:02.947Z,5.37
2018-08-17T05:12:32.790Z,3.83
2018-08-17T05:15:07.188Z,4.30
2018-08-17T05:17:38.021Z,3.73
2018-08-17T05:20:13.110Z,4.30
2018-08-17T05:22:44.190Z,4.07
2018-08-17T05:25:16.880Z,3.90
2018-08-17T05:30:35.001Z,4.03
2018-08-17T05:33:12.396Z,4.33
2018-08-17T05:35:52.331Z,4.00
2018-08-17T05:38:22.693Z,5.30
2018-08-17T05:40:57.027Z,4.10
2018-08-17T05:46:09.556Z,4.80
2018-08-17T05:48:41.109Z,3.27
2018-08-17T05:51:18.121Z,4.57
2018-08-17T05:53:55.138Z,4.47
2018-08-17T05:56:26.356Z,4.97
2018-08-17T05:58:56.482Z,3.20
2018-08-17T06:01:27.659Z,3.83
2018-08-17T06:03:58.009Z,5.83
2018-08-17T06:06:29.119Z,3.90
2018-08-17T06:09:00.730Z,4.17
2018-08-17T06:11:33.487Z,4.20
2018-08-17T06:14:07.070Z,4.10
2018-08-17T06:16:37.589Z,4.20
2018-08-17T06:19:07.804Z,4.47
2018-08-17T06:21:38.805Z,3.97
2018-08-17T06:24:08.715Z,3.50
2018-08-17T06:29:20.441Z,4.40
2018-08-17T06:31:50.650Z,6.37
2018-08-17T06:34:26.758Z,3.73
2018-08-17T06:36:56.462Z,3.80
2018-08-17T06:39:26.324Z,3.20
2018-08-17T06:41:56.526Z,3.23
2018-08-17T06:44:26.260Z,4.53
2018-08-17T06:46:56.242Z,5.60
2018-08-17T06:49:28.912Z,9.73
2018-08-17T06:52:00.567Z,4.73
2018-08-17T06:54:30.320Z,3.70
2018-08-17T06:57:01.108Z,4.00
2018-08-17T06:59:31.007Z,3.80
2018-08-17T07:02:00.979Z,3.53
2018-08-17T07:04:30.890Z,2.70
2018-08-17T07:07:00.655Z,4.30
2018-08-17T07:09:30.715Z,4.23
2018-08-17T07:12:00.319Z,3.17
2018-08-17T07:14:30.134Z,4.73
2018-08-17T07:17:00.616Z,3.40
2018-08-17T07:19:32.473Z,4.87
2018-08-17T07:22:02.882Z,3.17
2018-08-17T07:24:32.671Z,4.40
2018-08-17T07:27:03.381Z,3.83
2018-08-17T07:29:34.096Z,3.47
2018-08-17T07:32:03.940Z,2.77
2018-08-17T07:34:35.690Z,3.60
2018-08-17T07:37:06.258Z,2.80
2018-08-17T07:39:35.933Z,3.30
2018-08-17T07:42:06.556Z,2.47
2018-08-17T07:44:41.137Z,3.97
2018-08-17T07:47:10.813Z,5.83
2018-08-17T07:49:40.794Z,3.03
2018-08-17T07:52:13.594Z,2.70
2018-08-17T07:54:43.388Z,3.17
2018-08-17T07:57:13.378Z,3.00
2018-08-17T07:59:43.550Z,3.07
2018-08-17T08:02:13.354Z,2.33
2018-08-17T08:04:43.441Z,3.27
2018-08-17T08:07:14.090Z,3.13
2018-08-17T08:09:44.614Z,2.47
2018-08-17T08:12:15.365Z,3.60
2018-08-17T08:14:45.902Z,3.43
2018-08-17T08:20:55.079Z,5.10
2018-08-17T08:23:27.824Z,9.33
2018-08-17T08:26:01.583Z,4.53
2018-08-17T08:28:31.192Z,3.63
2018-08-17T08:31:01.363Z,4.57
2018-08-17T08:33:31.134Z,6.03
2018-08-17T08:36:02.072Z,5.93
2018-08-17T08:38:32.398Z,3.07
2018-08-17T08:41:02.335Z,6.00
2018-08-17T08:43:31.942Z,4.23
2018-08-17T08:47:11.379Z,5.07
2018-08-17T08:49:41.073Z,3.20
2018-08-17T08:52:10.742Z,5.60
2018-08-17T08:54:45.169Z,6.10
2018-08-17T08:57:15.427Z,4.23
2018-08-17T08:59:45.493Z,3.93
2018-08-17T09:02:16.275Z,3.27
2018-08-17T09:04:51.069Z,3.30
2018-08-17T09:07:22.270Z,3.33
2018-08-17T09:09:54.961Z,3.67
2018-08-17T09:13:38.151Z,4.70
2018-08-17T09:16:10.449Z,3.70
2018-08-17T09:18:50.236Z,4.80
2018-08-17T09:21:20.252Z,3.63
2018-08-17T09:23:55.921Z,6.07
2018-08-17T09:26:30.975Z,5.17
2018-08-17T09:31:56.465Z,4.50
2018-08-17T09:34:27.682Z,3.77
2018-08-17T09:37:01.400Z,3.17
2018-08-17T09:39:31.753Z,6.67
2018-08-17T09:45:04.774Z,4.80
2018-08-17T09:47:34.955Z,5.47
2018-08-17T09:50:22.746Z,2.80
2018-08-17T09:52:55.145Z,3.23
2018-08-17T09:55:24.750Z,3.57
2018-08-17T09:57:56.739Z,3.67
2018-08-17T10:00:31.484Z,5.00
2018-08-17T10:03:06.186Z,4.13
2018-08-17T10:05:38.777Z,5.70
2018-08-17T10:08:16.438Z,3.43
2018-08-17T10:10:46.270Z,5.37
2018-08-17T10:13:16.710Z,2.73
2018-08-17T10:15:47.034Z,3.97
2018-08-17T10:20:57.023Z,3.63
2018-08-17T10:23:28.785Z,2.87
2018-08-17T10:26:09.076Z,4.03
2018-08-17T10:28:38.858Z,3.30
2018-08-17T10:31:09.894Z,5.03
2018-08-17T10:34:07.640Z,3.63
2018-08-17T10:36:48.599Z,4.40
2018-08-17T10:39:18.850Z,4.03
2018-08-17T10:42:57.068Z,2.83
2018-08-17T10:45:27.611Z,4.47
2018-08-17T10:47:58.734Z,3.87
2018-08-17T10:50:29.712Z,3.60
2018-08-17T10:53:00.547Z,3.17
2018-08-17T10:55:39.851Z,7.90
2018-08-17T10:58:12.324Z,3.00
2018-08-17T11:00:43.353Z,3.00
2018-08-17T11:03:13.475Z,3.00
2018-08-17T11:05:43.714Z,3.37
2018-08-17T11:08:13.662Z,3.33
2018-08-17T11:10:43.493Z,3.20
2018-08-17T11:13:14.121Z,5.13
2018-08-17T11:15:44.335Z,3.80
2018-08-17T11:18:14.575Z,3.30
2018-08-17T11:20:46.242Z,4.53
2018-08-17T11:23:17.011Z,3.63
2018-08-17T11:25:51.602Z,5.00
2018-08-17T11:28:23.680Z,4.23
2018-08-17T11:30:53.825Z,3.63
2018-08-17T11:33:27.990Z,4.67
2018-08-17T11:35:58.347Z,4.67
2018-08-17T11:38:31.534Z,3.80
2018-08-17T11:41:01.150Z,3.30
2018-08-17T11:43:52.238Z,3.90
2018-08-17T11:46:25.363Z,3.67
2018-08-17T11:48:55.255Z,5.57
2018-08-17T11:51:24.881Z,3.10
2018-08-17T11:53:54.569Z,3.57
2018-08-17T11:56:24.206Z,3.80
2018-08-17T11:58:53.879Z,4.97
2018-08-17T12:01:29.116Z,3.50
2018-08-17T12:03:58.785Z,4.00
2018-08-17T12:06:29.382Z,3.20
2018-08-17T12:08:58.957Z,3.27
2018-08-17T12:11:28.530Z,4.30
2018-08-17T12:13:58.106Z,4.63
2018-08-17T12:16:29.589Z,9.10
2018-08-17T12:18:59.939Z,4.57
2018-08-17T12:21:30.017Z,4.00
2018-08-17T12:24:06.012Z,3.23
2018-08-17T12:29:30.194Z,4.33
2018-08-17T12:34:37.887Z,3.73
2018-08-17T12:37:25.852Z,4.23
2018-08-17T12:39:55.777Z,3.57
2018-08-17T12:45:19.411Z,3.23
2018-08-17T12:47:50.291Z,2.90
2018-08-17T12:50:20.012Z,10.43
2018-08-17T12:52:52.154Z,3.63
2018-08-17T12:55:23.831Z,3.60
2018-08-17T12:57:54.728Z,3.00
2018-08-17T13:00:25.415Z,4.10
2018-08-17T13:02:55.704Z,3.50
2018-08-17T13:05:26.848Z,5.63
2018-08-17T13:10:42.289Z,3.27
2018-08-17T13:13:22.710Z,4.10
2018-08-17T13:18:33.316Z,3.13
2018-08-17T13:21:14.088Z,4.27
2018-08-17T13:23:43.985Z,3.73
2018-08-17T13:26:42.956Z,3.37
2018-08-17T13:29:14.157Z,3.90
2018-08-17T13:31:43.905Z,4.57
2018-08-17T13:34:18.471Z,3.63
2018-08-17T13:36:48.437Z,4.07
2018-08-17T13:39:18.727Z,3.40
2018-08-17T13:41:50.971Z,8.23
2018-08-17T13:44:25.306Z,3.63
2018-08-17T13:46:55.536Z,3.50
2018-08-17T13:49:26.085Z,3.67
2018-08-17T13:51:55.988Z,3.40
2018-08-17T13:54:25.904Z,3.40
2018-08-17T13:56:56.092Z,3.57
2018-08-17T13:59:26.085Z,3.10
2018-08-17T14:01:59.621Z,4.37
2018-08-17T14:04:29.497Z,3.43
2018-08-17T14:06:59.472Z,3.50
2018-08-17T14:09:30.893Z,5.10
2018-08-17T14:12:01.737Z,3.40
2018-08-17T14:14:35.972Z,4.50
2018-08-17T14:17:06.426Z,3.53
2018-08-17T14:26:13.708Z,3.60
2018-08-17T14:28:45.496Z,4.40
2018-08-17T14:31:17.500Z,3.63
2018-08-17T14:33:48.459Z,4.97
2018-08-17T14:36:19.194Z,3.53
2018-08-17T14:38:54.087Z,4.33
2018-08-17T14:41:26.870Z,3.70
2018-08-17T14:43:57.863Z,5.07
2018-08-17T14:46:39.563Z,4.17
2018-08-17T14:51:46.943Z,3.30
2018-08-17T14:54:26.711Z,5.63
2018-08-17T14:57:01.733Z,3.53
2018-08-17T14:59:32.666Z,3.20
2018-08-17T15:02:03.095Z,3.77
2018-08-17T15:05:35.575Z,2.90
2018-08-17T15:08:06.022Z,4.07
2018-08-17T15:10:36.528Z,3.13
2018-08-17T15:13:06.658Z,4.20
2018-08-17T15:15:36.765Z,2.80
2018-08-17T15:18:06.857Z,2.77
2018-08-17T15:20:36.800Z,3.17
2018-08-17T15:23:07.789Z,2.70
2018-08-17T15:25:38.989Z,3.03
2018-08-17T15:28:09.001Z,3.70
2018-08-17T15:30:40.517Z,5.93
2018-08-17T15:33:19.424Z,2.93
2018-08-17T15:35:49.662Z,4.47
2018-08-17T15:38:19.574Z,2.67
2018-08-17T15:40:49.769Z,3.67
2018-08-17T15:43:21.393Z,3.50
2018-08-17T15:45:51.576Z,2.73
2018-08-17T15:53:28.426Z,2.53
2018-08-17T15:55:58.492Z,3.50
2018-08-17T15:58:30.081Z,4.07
2018-08-17T16:01:03.044Z,3.10
2018-08-17T16:03:34.073Z,5.60
2018-08-17T16:06:13.997Z,3.87
2018-08-17T16:08:44.806Z,3.37
2018-08-17T16:11:15.025Z,4.90
2018-08-17T16:13:45.576Z,3.53
2018-08-17T16:16:15.830Z,3.23
2018-08-17T16:18:46.250Z,3.40
2018-08-17T16:21:16.327Z,3.13
2018-08-17T16:23:47.001Z,3.70
2018-08-17T16:26:17.079Z,4.23
2018-08-17T16:28:47.810Z,4.63
2018-08-17T16:31:18.970Z,3.93
2018-08-17T16:33:49.391Z,3.33
2018-08-17T16:36:19.980Z,3.30
2018-08-17T16:38:51.422Z,3.73
2018-08-17T16:41:22.468Z,3.47
2018-08-17T16:43:53.725Z,3.43
2018-08-17T16:46:24.172Z,3.57
2018-08-17T16:48:53.877Z,3.23
2018-08-17T16:54:21.736Z,4.67
2018-08-17T16:56:52.116Z,5.20
2018-08-17T16:59:22.408Z,3.00
2018-08-17T17:01:53.568Z,3.40
2018-08-17T17:04:23.999Z,3.43
2018-08-17T17:06:54.544Z,5.00
2018-08-17T17:12:02.987Z,3.90
2018-08-17T17:14:44.576Z,3.90
2018-08-17T17:17:16.742Z,4.33
2018-08-17T17:19:48.202Z,3.60
2018-08-17T17:22:20.080Z,7.37
2018-08-17T17:24:50.579Z,3.37
2018-08-17T17:27:21.602Z,4.67
2018-08-17T17:30:04.808Z,3.47
2018-08-17T17:32:34.954Z,5.17
2018-08-17T17:35:12.545Z,3.60
2018-08-17T17:37:45.572Z,4.10
2018-08-17T17:40:17.813Z,5.23
2018-08-17T17:42:48.852Z,5.53
2018-08-17T17:48:19.118Z,5.37
2018-08-17T17:50:50.253Z,5.60
2018-08-17T17:57:19.020Z,4.90
2018-08-17T18:00:01.579Z,7.40
2018-08-17T18:02:33.867Z,4.93
2018-08-17T18:11:08.696Z,5.73
2018-08-17T18:13:46.139Z,6.10
2018-08-17T18:16:17.281Z,5.70
2018-08-17T18:18:50.375Z,5.70
2018-08-17T18:21:24.782Z,8.97
2018-08-17T18:24:12.556Z,6.33
2018-08-17T18:30:40.570Z,8.17
2018-08-17T18:36:09.752Z,5.47
2018-08-17T18:44:26.486Z,9.13
2018-08-17T18:47:28.176Z,10.27
2018-08-17T18:53:13.486Z,8.13
2018-08-17T18:55:59.185Z,7.93
2018-08-17T18:59:02.404Z,6.57
2018-08-17T19:01:39.200Z,7.00
2018-08-17T19:04:10.368Z,7.40
2018-08-17T19:06:43.528Z,6.50
2018-08-17T19:09:14.740Z,6.27
2018-08-17T19:11:46.049Z,6.20
2018-08-17T19:14:22.948Z,8.70
2018-08-17T19:16:54.091Z,7.07
2018-08-17T19:19:25.203Z,6.43
2018-08-17T19:24:50.560Z,5.77
2018-08-17T19:30:03.753Z,8.63
2018-08-17T19:32:34.977Z,5.50
2018-08-17T19:35:05.940Z,6.07
2018-08-17T19:37:40.567Z,6.37
2018-08-17T19:40:10.928Z,5.30
2018-08-17T19:42:41.717Z,5.87
2018-08-17T19:48:00.602Z,4.83
2018-08-17T19:50:41.595Z,5.47
2018-08-17T19:53:11.708Z,6.37
2018-08-17T19:55:41.776Z,6.63
2018-08-17T19:58:15.599Z,5.43
2018-08-17T20:00:48.979Z,9.27
2018-08-17T20:03:25.550Z,6.33
2018-08-17T20:06:24.940Z,6.70
2018-08-17T20:08:54.918Z,5.70
2018-08-17T20:11:43.664Z,5.50
2018-08-17T20:14:19.993Z,4.83
2018-08-17T20:16:56.465Z,5.30
2018-08-17T20:19:45.271Z,5.23
2018-08-17T20:22:24.036Z,5.43
2018-08-17T20:27:34.176Z,6.43
2018-08-17T20:30:38.084Z,5.73
2018-08-17T20:33:22.039Z,5.07
2018-08-17T20:39:03.055Z,7.53
2018-08-17T20:41:41.917Z,6.17
2018-08-17T20:44:12.448Z,6.63
2018-08-17T20:46:50.856Z,5.63
2018-08-17T20:49:22.876Z,5.77
2018-08-17T20:52:08.297Z,5.53
2018-08-17T20:54:40.567Z,6.90
2018-08-17T20:57:23.010Z,6.30
2018-08-17T20:59:56.266Z,5.80
2018-08-17T21:02:27.861Z,5.40
2018-08-17T21:05:03.115Z,5.63
2018-08-17T21:07:34.983Z,6.17
2018-08-17T21:10:09.395Z,6.60
2018-08-17T21:12:40.131Z,7.07
2018-08-17T21:15:15.965Z,6.17
2018-08-17T21:17:46.205Z,5.93
2018-08-17T21:20:17.652Z,5.87
2018-08-17T21:22:47.913Z,5.87
2018-08-17T21:25:18.002Z,6.33
2018-08-17T21:27:49.124Z,8.07
2018-08-17T21:30:20.906Z,6.20
2018-08-17T21:32:51.212Z,5.80
2018-08-17T21:35:26.953Z,9.23
2018-08-17T21:37:57.457Z,8.83
2018-08-17T21:40:29.156Z,6.73
2018-08-17T21:43:02.004Z,6.27
2018-08-17T21:45:33.647Z,7.60
2018-08-17T21:48:06.046Z,7.30
2018-08-17T21:50:51.184Z,6.63
2018-08-17T21:53:25.979Z,8.03
2018-08-17T21:55:57.459Z,7.83
2018-08-17T21:58:28.352Z,8.30
2018-08-17T22:01:00.355Z,6.93
2018-08-17T22:06:15.243Z,6.57
2018-08-17T22:08:51.567Z,7.67
2018-08-17T22:11:45.380Z,7.00
2018-08-17T22:16:54.133Z,9.37
2018-08-17T22:19:36.368Z,8.37
2018-08-17T22:22:07.513Z,10.20
2018-08-17T22:24:43.879Z,8.70
2018-08-17T22:29:56.402Z,9.83
2018-08-17T22:32:26.834Z,8.80
2018-08-17T22:34:58.686Z,7.30
2018-08-17T22:38:42.877Z,8.27
2018-08-17T22:41:13.914Z,8.97
2018-08-17T22:43:44.135Z,9.97
2018-08-17T22:46:15.729Z,8.53
2018-08-17T22:48:46.619Z,10.23
2018-08-17T22:51:17.764Z,10.70
2018-08-17T22:53:47.876Z,9.80
2018-08-17T22:56:18.005Z,12.43
2018-08-17T22:58:48.692Z,11.57
2018-08-17T23:01:20.332Z,15.07
2018-08-17T23:03:54.577Z,16.87
2018-08-17T23:06:26.532Z,19.13
2018-08-17T23:09:10.809Z,17.47
2018-08-17T23:11:41.327Z,21.03
2018-08-17T23:14:18.017Z,21.13
2018-08-17T23:16:48.122Z,18.00
2018-08-17T23:19:17.978Z,18.97
2018-08-17T23:21:47.701Z,18.03
2018-08-17T23:24:17.692Z,17.57
2018-08-17T23:26:50.841Z,17.87
2018-08-17T23:29:20.645Z,21.57
2018-08-17T23:31:50.255Z,17.60
2018-08-17T23:34:19.917Z,19.23
2018-08-17T23:36:50.329Z,19.67
2018-08-17T23:39:19.897Z,19.77
2018-08-17T23:41:50.107Z,21.57
2018-08-17T23:44:19.867Z,22.53
2018-08-17T23:46:49.727Z,19.90
2018-08-17T23:49:30.444Z,27.13
2018-08-17T23:52:00.567Z,26.07
2018-08-17T23:54:30.340Z,28.20
2018-08-17T23:57:00.489Z,28.30
2018-08-17T23:59:31.540Z,31.47
